Time;durP1;ratioP1;P1;durP2;ratioP2;P2;SDS_P1;SDS_P2;PMS_P1;PMS_P2;Temp;Humidity;BMP_temperature;BMP_pressure;BME280_temperature;BME280_humidity;BME280_pressure;Samples;Min_cycle;Max_cycle;Signal;HPM_P1;HPM_P2
2023/04/01 00:01:34;;;;;;;4.10;1.00;;;;;;;;;;8314281;28;20541;-64
2023/04/01 00:05:34;;;;;;;4.65;1.00;;;;;;;;;;8312884;28;20029;-64
2023/04/01 00:09:35;;;;;;;3.95;1.25;;;;;;;;;;8313313;28;20112;-64
2023/04/01 00:13:35;;;;;;;4.20;1.40;;;;;;;;;;8311717;28;20112;-64
2023/04/01 00:17:35;;;;;;;3.58;1.08;;;;;;;;;;8312821;28;20029;-65
2023/04/01 00:21:36;;;;;;;8.07;1.40;;;;;;;;;;8309301;28;20028;-64
2023/04/01 00:25:36;;;;;;;3.67;1.30;;;;;;;;;;8312848;28;21002;-64
2023/04/01 00:29:36;;;;;;;2.97;1.10;;;;;;;;;;8315009;28;20028;-64
2023/04/01 00:33:37;;;;;;;6.00;1.10;;;;;;;;;;8313305;28;20151;-64
2023/04/01 00:37:39;;;;;;;4.78;1.20;;;;;;;;;;8314531;28;20029;-64
2023/04/01 00:41:40;;;;;;;5.15;1.20;;;;;;;;;;8312571;28;20104;-64
2023/04/01 00:45:41;;;;;;;3.55;1.02;;;;;;;;;;8313305;28;20037;-64
2023/04/01 00:49:43;;;;;;;4.78;1.02;;;;;;;;;;8311798;28;20037;-64
2023/04/01 00:53:46;;;;;;;4.38;0.95;;;;;;;;;;8312967;28;20019;-64
2023/04/01 00:57:48;;;;;;;4.93;1.13;;;;;;;;;;8312188;28;20029;-64
2023/04/01 01:01:48;;;;;;;4.35;1.10;;;;;;;;;;8309660;28;20042;-64
2023/04/01 01:05:51;;;;;;;4.97;1.20;;;;;;;;;;8312269;28;20767;-64
2023/04/01 01:10:13;;;;;;;5.78;1.20;;;;;;;;;;8312612;28;20263;-64
2023/04/01 01:14:16;;;;;;;5.15;1.40;;;;;;;;;;8311120;28;20365;-64
2023/04/01 01:18:16;;;;;;;4.95;1.30;;;;;;;;;;8310946;28;20153;-64
2023/04/01 01:22:16;;;;;;;2.35;0.90;;;;;;;;;;8310969;28;20021;-64
2023/04/01 01:26:16;;;;;;;4.82;1.23;;;;;;;;;;8310288;28;20032;-64
2023/04/01 01:30:22;;;;;;;5.90;1.20;;;;;;;;;;8310709;28;20048;-64
2023/04/01 01:34:27;;;;;;;4.18;1.10;;;;;;;;;;8312175;28;20029;-64
2023/04/01 01:38:30;;;;;;;4.72;1.25;;;;;;;;;;8310463;28;20032;-64
2023/04/01 01:42:33;;;;;;;6.87;1.30;;;;;;;;;;8311441;28;20071;-64
2023/04/01 01:46:33;;;;;;;1.58;0.95;;;;;;;;;;8309253;28;20338;-64
2023/04/01 01:50:33;;;;;;;4.63;1.08;;;;;;;;;;8300477;28;20025;-64
2023/04/01 01:54:33;;;;;;;4.13;1.30;;;;;;;;;;8310438;28;20016;-64
2023/04/01 01:58:40;;;;;;;4.30;1.30;;;;;;;;;;8312544;28;20025;-64
2023/04/01 02:02:41;;;;;;;4.60;1.00;;;;;;;;;;8307970;28;20542;-64
2023/04/01 02:06:46;;;;;;;2.72;0.77;;;;;;;;;;8311120;28;20063;-64
2023/04/01 02:10:55;;;;;;;6.65;1.30;;;;;;;;;;8310796;28;20796;-64
2023/04/01 02:14:58;;;;;;;6.85;1.10;;;;;;;;;;8308152;28;20033;-64
2023/04/01 02:18:59;;;;;;;5.10;1.40;;;;;;;;;;8306191;28;20041;-64
2023/04/01 02:22:59;;;;;;;2.83;1.00;;;;;;;;;;8308194;28;20283;-64
2023/04/01 02:27:00;;;;;;;5.43;1.35;;;;;;;;;;8309270;28;20493;-64
2023/04/01 02:31:02;;;;;;;4.95;1.20;;;;;;;;;;8306910;28;20345;-64
2023/04/01 02:35:05;;;;;;;7.05;1.40;;;;;;;;;;8306179;28;20809;-64
2023/04/01 02:39:06;;;;;;;6.10;1.20;;;;;;;;;;8306700;28;20065;-64
2023/04/01 02:43:06;;;;;;;6.50;1.52;;;;;;;;;;8309459;28;20029;-64
2023/04/01 02:47:06;;;;;;;2.92;1.20;;;;;;;;;;8307864;28;20048;-64
2023/04/01 02:51:07;;;;;;;5.90;1.25;;;;;;;;;;8305997;28;20094;-64
2023/04/01 02:55:08;;;;;;;2.88;0.90;;;;;;;;;;8309700;28;21041;-64
2023/04/01 02:59:08;;;;;;;3.60;1.13;;;;;;;;;;8307051;28;20409;-64
2023/04/01 03:03:09;;;;;;;14.00;1.83;;;;;;;;;;8307462;28;20470;-64
2023/04/01 03:07:12;;;;;;;2.67;1.00;;;;;;;;;;8307266;28;20036;-64
2023/04/01 03:11:13;;;;;;;7.07;1.27;;;;;;;;;;8307776;28;20021;-64
2023/04/01 03:15:14;;;;;;;4.05;1.17;;;;;;;;;;8306732;28;20068;-64
2023/04/01 03:19:14;;;;;;;2.70;1.00;;;;;;;;;;8309361;28;20015;-64
2023/04/01 03:23:17;;;;;;;3.28;0.90;;;;;;;;;;8310307;28;20032;-64
2023/04/01 03:27:17;;;;;;;7.18;1.55;;;;;;;;;;8309265;28;20049;-64
2023/04/01 03:31:17;;;;;;;5.05;1.33;;;;;;;;;;8313447;28;20037;-64
2023/04/01 03:35:17;;;;;;;4.32;1.08;;;;;;;;;;8300248;28;20559;-64
2023/04/01 03:39:18;;;;;;;5.28;1.35;;;;;;;;;;8315255;28;20063;-64
2023/04/01 03:43:18;;;;;;;3.80;1.10;;;;;;;;;;8314618;28;20566;-64
2023/04/01 03:47:18;;;;;;;6.90;1.30;;;;;;;;;;8311567;28;20041;-64
2023/04/01 03:51:19;;;;;;;3.95;1.27;;;;;;;;;;8315646;28;20032;-64
2023/04/01 03:55:19;;;;;;;5.55;1.50;;;;;;;;;;8315916;28;20763;-64
2023/04/01 03:59:19;;;;;;;3.17;1.05;;;;;;;;;;8315287;28;20032;-64
2023/04/01 04:03:20;;;;;;;4.72;1.00;;;;;;;;;;8317103;28;20862;-64
2023/04/01 04:07:20;;;;;;;5.35;1.20;;;;;;;;;;8312450;28;20110;-64
2023/04/01 04:11:20;;;;;;;3.70;1.00;;;;;;;;;;8312955;28;20473;-65
2023/04/01 04:15:21;;;;;;;2.90;0.90;;;;;;;;;;8314488;28;20030;-64
2023/04/01 04:19:21;;;;;;;2.95;1.08;;;;;;;;;;8314707;28;20093;-64
2023/04/01 04:23:21;;;;;;;5.50;1.15;;;;;;;;;;8312775;28;20029;-64
2023/04/01 04:27:21;;;;;;;5.00;1.20;;;;;;;;;;8312701;28;20028;-64
2023/04/01 04:31:22;;;;;;;3.83;1.00;;;;;;;;;;8313690;28;20029;-64
2023/04/01 04:35:22;;;;;;;3.92;1.23;;;;;;;;;;8313460;28;20641;-64
2023/04/01 04:39:23;;;;;;;3.75;1.10;;;;;;;;;;8314440;28;20082;-64
2023/04/01 04:43:23;;;;;;;2.20;1.05;;;;;;;;;;8311953;28;20025;-64
2023/04/01 04:47:23;;;;;;;3.42;0.95;;;;;;;;;;8296203;28;20037;-64
2023/04/01 04:51:23;;;;;;;6.53;1.67;;;;;;;;;;8313638;28;20036;-64
2023/04/01 04:55:24;;;;;;;3.45;0.90;;;;;;;;;;8313292;28;20017;-64
2023/04/01 04:59:24;;;;;;;2.80;0.98;;;;;;;;;;8311866;28;20561;-64
2023/04/01 05:03:24;;;;;;;3.53;1.08;;;;;;;;;;8312841;28;20056;-64
2023/04/01 05:07:24;;;;;;;3.03;0.88;;;;;;;;;;8314340;28;20036;-64
2023/04/01 05:11:25;;;;;;;5.18;1.27;;;;;;;;;;8308851;28;20433;-64
2023/04/01 05:15:26;;;;;;;1.83;0.88;;;;;;;;;;8313766;28;20035;-64
2023/04/01 05:19:26;;;;;;;4.32;1.10;;;;;;;;;;8311481;28;20029;-64
2023/04/01 05:23:26;;;;;;;2.20;0.93;;;;;;;;;;8302873;28;20032;-64
2023/04/01 05:27:26;;;;;;;3.60;1.13;;;;;;;;;;8310535;28;20037;-64
2023/04/01 05:31:26;;;;;;;4.03;1.23;;;;;;;;;;8311834;28;20106;-64
2023/04/01 05:35:26;;;;;;;3.15;0.90;;;;;;;;;;8311349;28;20120;-64
2023/04/01 05:39:27;;;;;;;3.78;0.75;;;;;;;;;;8311400;28;20037;-64
2023/04/01 05:43:27;;;;;;;5.65;1.25;;;;;;;;;;8309321;28;20048;-64
2023/04/01 05:47:27;;;;;;;3.13;0.80;;;;;;;;;;8309597;28;20050;-64
2023/04/01 05:51:28;;;;;;;4.35;1.15;;;;;;;;;;8311108;28;20482;-64
2023/04/01 05:55:28;;;;;;;1.75;0.75;;;;;;;;;;8310750;28;20031;-64
2023/04/01 05:59:28;;;;;;;3.33;0.80;;;;;;;;;;8308242;28;20145;-64
2023/04/01 06:03:28;;;;;;;2.03;0.70;;;;;;;;;;8308263;28;20033;-64
2023/04/01 06:07:28;;;;;;;3.65;1.17;;;;;;;;;;8312096;28;20310;-64
2023/04/01 06:11:41;;;;;;;1.33;0.60;;;;;;;;;;8310926;28;20033;-64
2023/04/01 06:15:52;;;;;;;2.30;0.70;;;;;;;;;;8309670;28;20067;-64
2023/04/01 06:20:10;;;;;;;1.50;0.80;;;;;;;;;;8309167;28;20025;-64
2023/04/01 06:24:40;;;;;;;1.58;0.70;;;;;;;;;;8309851;28;20078;-64
2023/04/01 06:29:06;;;;;;;1.27;0.70;;;;;;;;;;8309636;28;20572;-64
2023/04/01 06:33:06;;;;;;;1.10;0.70;;;;;;;;;;8281258;28;20391;-64
2023/04/01 06:37:15;;;;;;;1.33;0.80;;;;;;;;;;8300255;28;20021;-64
2023/04/01 06:41:23;;;;;;;1.52;0.70;;;;;;;;;;8307862;28;20029;-65
2023/04/01 06:45:26;;;;;;;1.63;0.73;;;;;;;;;;8292430;28;20852;-64
2023/04/01 06:49:35;;;;;;;1.50;0.73;;;;;;;;;;8307150;28;20025;-64
2023/04/01 06:53:49;;;;;;;1.30;0.70;;;;;;;;;;8310308;28;20025;-64
2023/04/01 06:57:50;;;;;;;1.23;0.70;;;;;;;;;;8303605;28;20121;-64
2023/04/01 07:01:53;;;;;;;0.52;0.52;;;;;;;;;;8301893;28;20231;-64
2023/04/01 07:05:55;;;;;;;1.85;0.70;;;;;;;;;;8296658;28;20152;-64
2023/04/01 07:09:59;;;;;;;1.15;0.80;;;;;;;;;;8315556;28;20061;-64
2023/04/01 07:14:01;;;;;;;2.40;0.80;;;;;;;;;;8315040;28;20562;-64
2023/04/01 07:18:09;;;;;;;0.60;0.60;;;;;;;;;;8310740;28;20030;-64
2023/04/01 07:22:28;;;;;;;1.05;0.70;;;;;;;;;;8312386;28;20747;-64
2023/04/01 07:26:28;;;;;;;0.60;0.60;;;;;;;;;;8313928;28;20033;-64
2023/04/01 07:30:33;;;;;;;2.13;0.90;;;;;;;;;;8310339;28;20150;-64
2023/04/01 07:34:57;;;;;;;0.82;0.60;;;;;;;;;;8293192;28;20025;-64
2023/04/01 07:38:57;;;;;;;1.20;0.60;;;;;;;;;;8298053;28;20044;-64
2023/04/01 07:43:13;;;;;;;1.83;0.70;;;;;;;;;;8304821;28;20083;-64
2023/04/01 07:47:34;;;;;;;1.25;0.63;;;;;;;;;;8310408;28;20045;-64
2023/04/01 07:51:43;;;;;;;1.15;0.63;;;;;;;;;;8311208;28;20106;-64
2023/04/01 07:55:44;;;;;;;0.68;0.60;;;;;;;;;;8310291;28;20027;-64
2023/04/01 07:59:58;;;;;;;0.63;0.60;;;;;;;;;;8311550;28;20021;-64
2023/04/01 08:04:13;;;;;;;0.68;0.60;;;;;;;;;;8303226;28;20284;-64
2023/04/01 08:08:16;;;;;;;0.60;0.60;;;;;;;;;;8310395;28;20051;-64
2023/04/01 08:12:31;;;;;;;1.73;0.50;;;;;;;;;;8310686;28;20028;-64
2023/04/01 08:16:37;;;;;;;0.40;0.40;;;;;;;;;;8310432;28;20044;-64
2023/04/01 08:20:44;;;;;;;0.55;0.55;;;;;;;;;;8310048;28;20067;-64
2023/04/01 08:24:46;;;;;;;1.55;0.50;;;;;;;;;;8311831;28;20056;-65
2023/04/01 08:28:51;;;;;;;0.70;0.70;;;;;;;;;;8309593;28;20080;-64
2023/04/01 08:32:55;;;;;;;0.45;0.45;;;;;;;;;;8307073;28;20029;-65
2023/04/01 08:37:02;;;;;;;0.57;0.57;;;;;;;;;;8307079;28;20028;-65
2023/04/01 08:41:27;;;;;;;0.40;0.40;;;;;;;;;;8292638;28;20017;-64
2023/04/01 08:45:45;;;;;;;2.53;0.60;;;;;;;;;;8309458;28;20068;-65
2023/04/01 08:49:48;;;;;;;0.50;0.50;;;;;;;;;;8309908;28;20577;-65
2023/04/01 08:53:58;;;;;;;0.52;0.50;;;;;;;;;;8310994;28;20037;-64
2023/04/01 08:58:16;;;;;;;0.80;0.50;;;;;;;;;;8310551;28;20028;-64
2023/04/01 09:02:37;;;;;;;0.40;0.40;;;;;;;;;;8311924;28;20065;-65
2023/04/01 09:06:56;;;;;;;0.50;0.50;;;;;;;;;;8310282;28;20049;-65
2023/04/01 09:10:59;;;;;;;1.55;0.40;;;;;;;;;;8310467;28;20075;-64
2023/04/01 09:15:02;;;;;;;0.40;0.40;;;;;;;;;;8308513;28;20090;-64
2023/04/01 09:19:18;;;;;;;0.55;0.55;;;;;;;;;;8310374;28;20040;-64
2023/04/01 09:23:37;;;;;;;0.68;0.57;;;;;;;;;;8309087;28;20031;-64
2023/04/01 09:28:06;;;;;;;0.65;0.50;;;;;;;;;;8306373;28;20060;-65
2023/04/01 09:32:25;;;;;;;0.45;0.40;;;;;;;;;;8278019;28;20033;-64
2023/04/01 09:36:45;;;;;;;0.38;0.38;;;;;;;;;;8307097;28;20032;-65
2023/04/01 09:40:55;;;;;;;0.50;0.50;;;;;;;;;;8308444;28;20083;-64
2023/04/01 09:45:13;;;;;;;0.40;0.40;;;;;;;;;;8307325;28;20017;-65
2023/04/01 09:49:24;;;;;;;0.40;0.40;;;;;;;;;;8307548;28;20039;-64
2023/04/01 09:53:27;;;;;;;0.45;0.45;;;;;;;;;;8299901;28;20025;-64
2023/04/01 09:57:46;;;;;;;0.40;0.40;;;;;;;;;;8307878;28;20021;-65
2023/04/01 10:02:12;;;;;;;0.63;0.50;;;;;;;;;;8303096;28;20048;-65
2023/04/01 10:06:19;;;;;;;0.55;0.45;;;;;;;;;;8292395;28;20030;-64
2023/04/01 10:10:42;;;;;;;0.52;0.50;;;;;;;;;;8307482;28;20800;-64
2023/04/01 10:15:01;;;;;;;0.50;0.50;;;;;;;;;;8307323;28;20029;-64
2023/04/01 10:19:20;;;;;;;0.40;0.40;;;;;;;;;;8305633;28;20063;-65
2023/04/01 10:23:29;;;;;;;0.45;0.45;;;;;;;;;;8307306;28;20060;-65
2023/04/01 10:27:41;;;;;;;0.50;0.50;;;;;;;;;;8304523;28;20729;-64
2023/04/01 10:32:01;;;;;;;0.40;0.40;;;;;;;;;;8308474;28;20033;-65
2023/04/01 10:36:16;;;;;;;0.50;0.50;;;;;;;;;;8310567;28;20550;-64
2023/04/01 10:40:16;;;;;;;;;;;;;;;;;;8309451;28;20461;-64
2023/04/01 10:44:22;;;;;;;0.93;0.60;;;;;;;;;;8310107;28;19913;-64
2023/04/01 10:48:43;;;;;;;0.68;0.40;;;;;;;;;;8308784;28;20648;-64
2023/04/01 10:52:44;;;;;;;0.40;0.40;;;;;;;;;;8309186;28;20079;-64
2023/04/01 10:56:48;;;;;;;0.40;0.40;;;;;;;;;;8309321;28;20021;-64
2023/04/01 11:01:00;;;;;;;0.52;0.45;;;;;;;;;;8306315;28;20033;-64
2023/04/01 11:05:19;;;;;;;0.73;0.40;;;;;;;;;;8308594;28;20024;-64
2023/04/01 11:09:38;;;;;;;0.45;0.45;;;;;;;;;;8308347;28;20025;-65
2023/04/01 11:13:44;;;;;;;0.75;0.60;;;;;;;;;;8308995;28;20024;-64
2023/04/01 11:17:45;;;;;;;0.60;0.60;;;;;;;;;;8307757;28;20029;-64
2023/04/01 11:22:04;;;;;;;0.50;0.50;;;;;;;;;;8308573;28;20064;-64
2023/04/01 11:26:04;;;;;;;0.57;0.57;;;;;;;;;;8308021;28;20027;-65
2023/04/01 11:30:14;;;;;;;0.40;0.40;;;;;;;;;;8311116;28;20776;-65
2023/04/01 11:34:30;;;;;;;3.00;0.50;;;;;;;;;;8308539;28;20096;-65
2023/04/01 11:38:38;;;;;;;0.80;0.50;;;;;;;;;;8308091;28;20029;-65
2023/04/01 11:42:43;;;;;;;1.05;0.38;;;;;;;;;;8308339;28;20140;-64
2023/04/01 11:46:56;;;;;;;0.43;0.43;;;;;;;;;;8308341;28;20037;-65
2023/04/01 11:51:06;;;;;;;0.50;0.50;;;;;;;;;;8310343;28;20436;-65
2023/04/01 11:55:06;;;;;;;1.65;0.50;;;;;;;;;;8310639;28;20029;-65
2023/04/01 11:59:09;;;;;;;0.95;0.50;;;;;;;;;;8313541;28;20515;-64
2023/04/01 12:03:28;;;;;;;2.83;0.50;;;;;;;;;;8313133;28;20048;-64
2023/04/01 12:07:28;;;;;;;3.80;0.70;;;;;;;;;;8313096;28;20037;-62
2023/04/01 12:11:28;;;;;;;0.50;0.50;;;;;;;;;;8313905;28;20032;-63
2023/04/01 12:15:29;;;;;;;0.60;0.60;;;;;;;;;;8314658;28;20116;-64
2023/04/01 12:19:41;;;;;;;0.50;0.50;;;;;;;;;;8312563;28;20025;-65
2023/04/01 12:23:47;;;;;;;0.50;0.50;;;;;;;;;;8313920;28;20453;-64
2023/04/01 12:27:53;;;;;;;0.50;0.50;;;;;;;;;;8309964;28;20030;-64
2023/04/01 12:32:09;;;;;;;0.50;0.50;;;;;;;;;;8312557;28;20765;-64
2023/04/01 12:36:23;;;;;;;0.70;0.50;;;;;;;;;;8307539;28;20159;-64
2023/04/01 12:40:23;;;;;;;0.50;0.50;;;;;;;;;;8308343;28;21598;-64
2023/04/01 12:44:42;;;;;;;0.50;0.50;;;;;;;;;;8308509;28;20129;-64
2023/04/01 12:49:00;;;;;;;0.40;0.40;;;;;;;;;;8310615;28;20412;-64
2023/04/01 12:53:20;;;;;;;0.63;0.50;;;;;;;;;;8302110;28;20041;-64
2023/04/01 12:57:39;;;;;;;0.45;0.43;;;;;;;;;;8310606;28;20032;-64
2023/04/01 13:02:00;;;;;;;1.55;0.50;;;;;;;;;;8310538;28;20041;-64
2023/04/01 13:06:11;;;;;;;0.50;0.50;;;;;;;;;;8311593;28;20029;-64
2023/04/01 13:10:36;;;;;;;0.60;0.52;;;;;;;;;;8300902;28;20029;-64
2023/04/01 13:14:55;;;;;;;0.63;0.63;;;;;;;;;;8311073;28;20112;-64
2023/04/01 13:19:28;;;;;;;5.63;0.50;;;;;;;;;;8311258;28;20033;-64
2023/04/01 13:23:34;;;;;;;0.50;0.50;;;;;;;;;;8243392;28;20040;-64
2023/04/01 13:27:40;;;;;;;0.50;0.50;;;;;;;;;;8307097;28;20026;-64
2023/04/01 13:31:40;;;;;;;0.88;0.50;;;;;;;;;;8307828;28;20037;-64
2023/04/01 13:35:40;;;;;;;0.70;0.70;;;;;;;;;;8311008;28;20750;-64
2023/04/01 13:39:44;;;;;;;0.70;0.60;;;;;;;;;;8310436;28;20100;-64
2023/04/01 13:44:10;;;;;;;0.40;0.40;;;;;;;;;;8309197;28;20029;-64
2023/04/01 13:48:23;;;;;;;0.60;0.60;;;;;;;;;;8304626;28;20594;-64
2023/04/01 13:52:37;;;;;;;0.85;0.85;;;;;;;;;;8307108;28;20021;-64
2023/04/01 13:56:38;;;;;;;2.10;0.50;;;;;;;;;;8296315;28;20083;-64
2023/04/01 14:00:47;;;;;;;2.00;0.50;;;;;;;;;;8307569;28;20033;-64
2023/04/01 14:04:53;;;;;;;0.45;0.45;;;;;;;;;;8288122;28;20112;-64
2023/04/01 14:09:08;;;;;;;0.40;0.40;;;;;;;;;;8298167;28;20629;-64
2023/04/01 14:13:14;;;;;;;1.05;0.63;;;;;;;;;;8307009;28;20028;-64
2023/04/01 14:17:15;;;;;;;0.50;0.50;;;;;;;;;;8307191;28;20114;-64
2023/04/01 14:21:19;;;;;;;0.50;0.50;;;;;;;;;;8309686;28;20018;-64
2023/04/01 14:25:31;;;;;;;0.50;0.50;;;;;;;;;;8309852;28;20103;-64
2023/04/01 14:29:36;;;;;;;1.10;0.60;;;;;;;;;;8308797;28;20493;-64
2023/04/01 14:33:48;;;;;;;0.55;0.55;;;;;;;;;;8308416;28;20037;-64
2023/04/01 14:37:58;;;;;;;1.33;0.50;;;;;;;;;;8310728;28;20017;-64
2023/04/01 14:42:17;;;;;;;0.63;0.60;;;;;;;;;;8308789;28;20648;-64
2023/04/01 14:46:32;;;;;;;0.60;0.55;;;;;;;;;;8312067;28;20048;-65
2023/04/01 14:50:41;;;;;;;0.52;0.52;;;;;;;;;;8308540;28;20036;-64
2023/04/01 14:54:43;;;;;;;1.38;0.73;;;;;;;;;;8307900;28;20124;-64
2023/04/01 14:58:44;;;;;;;0.60;0.60;;;;;;;;;;8310433;28;20052;-64
2023/04/01 15:03:03;;;;;;;0.60;0.60;;;;;;;;;;8309238;28;20749;-64
2023/04/01 15:07:06;;;;;;;0.60;0.60;;;;;;;;;;8308134;28;20032;-64
2023/04/01 15:11:09;;;;;;;1.20;0.77;;;;;;;;;;8309867;28;20017;-64
2023/04/01 15:15:33;;;;;;;0.60;0.60;;;;;;;;;;8309912;28;20468;-64
2023/04/01 15:19:51;;;;;;;1.10;0.68;;;;;;;;;;8293428;28;20674;-64
2023/04/01 15:23:57;;;;;;;2.05;0.60;;;;;;;;;;8310010;28;20021;-64
2023/04/01 15:28:06;;;;;;;0.50;0.50;;;;;;;;;;8315689;28;20021;-64
2023/04/01 15:32:24;;;;;;;1.80;0.70;;;;;;;;;;8315329;28;20033;-64
2023/04/01 15:36:43;;;;;;;0.95;0.70;;;;;;;;;;8312269;28;20080;-64
2023/04/01 15:40:51;;;;;;;1.08;0.60;;;;;;;;;;8316226;28;20025;-64
2023/04/01 15:45:10;;;;;;;1.08;0.50;;;;;;;;;;8315801;28;20029;-64
2023/04/01 15:49:28;;;;;;;0.50;0.50;;;;;;;;;;8299526;28;20044;-64
2023/04/01 15:53:38;;;;;;;2.50;0.70;;;;;;;;;;8306917;28;20035;-64
2023/04/01 15:57:47;;;;;;;1.90;0.60;;;;;;;;;;8306252;28;20099;-64
2023/04/01 16:01:58;;;;;;;1.00;0.50;;;;;;;;;;8304769;28;20045;-64
2023/04/01 16:06:10;;;;;;;0.50;0.50;;;;;;;;;;8306568;28;20422;-64
2023/04/01 16:10:18;;;;;;;0.65;0.57;;;;;;;;;;8306220;28;20025;-64
2023/04/01 16:14:27;;;;;;;0.80;0.60;;;;;;;;;;8305680;28;20277;-64
2023/04/01 16:18:35;;;;;;;0.68;0.50;;;;;;;;;;8306321;28;20032;-64
2023/04/01 16:22:38;;;;;;;0.60;0.50;;;;;;;;;;8306258;28;20480;-64
2023/04/01 16:26:47;;;;;;;0.70;0.50;;;;;;;;;;8307944;28;20164;-64
2023/04/01 16:30:54;;;;;;;1.58;0.60;;;;;;;;;;8305695;28;20037;-64
2023/04/01 16:35:27;;;;;;;0.35;0.35;;;;;;;;;;8304367;28;20028;-64
2023/04/01 16:39:43;;;;;;;0.70;0.47;;;;;;;;;;8283147;28;20250;-64
2023/04/01 16:43:54;;;;;;;2.15;0.50;;;;;;;;;;8304778;28;20025;-64
2023/04/01 16:48:16;;;;;;;1.30;0.63;;;;;;;;;;8304984;28;20525;-64
2023/04/01 16:52:29;;;;;;;1.55;0.50;;;;;;;;;;8302816;28;20760;-64
2023/04/01 16:56:37;;;;;;;0.67;0.43;;;;;;;;;;8305958;28;20028;-64
2023/04/01 17:00:47;;;;;;;0.40;0.40;;;;;;;;;;8304891;28;20598;-64
2023/04/01 17:04:48;;;;;;;0.80;0.40;;;;;;;;;;8284952;28;20032;-64
2023/04/01 17:09:07;;;;;;;0.55;0.55;;;;;;;;;;8304534;28;20290;-64
2023/04/01 17:13:07;;;;;;;0.50;0.50;;;;;;;;;;8305556;28;20118;-64
2023/04/01 17:17:07;;;;;;;1.48;0.52;;;;;;;;;;8302634;28;20446;-64
2023/04/01 17:21:10;;;;;;;0.52;0.50;;;;;;;;;;8303396;28;20018;-64
2023/04/01 17:25:29;;;;;;;1.42;0.52;;;;;;;;;;8305133;28;20045;-64
2023/04/01 17:29:52;;;;;;;0.63;0.47;;;;;;;;;;8303452;28;20029;-64
2023/04/01 17:33:53;;;;;;;0.40;0.40;;;;;;;;;;8302472;28;20033;-64
2023/04/01 17:37:59;;;;;;;0.32;0.32;;;;;;;;;;8302851;28;20021;-64
2023/04/01 17:42:11;;;;;;;1.73;0.63;;;;;;;;;;8302772;28;20017;-64
2023/04/01 17:46:30;;;;;;;0.95;0.73;;;;;;;;;;8303039;28;20493;-64
2023/04/01 17:50:44;;;;;;;0.80;0.60;;;;;;;;;;8303629;28;20082;-64
2023/04/01 17:55:04;;;;;;;1.58;0.70;;;;;;;;;;8302854;28;20274;-64
2023/04/01 17:59:10;;;;;;;0.40;0.40;;;;;;;;;;8302528;28;20493;-64
2023/04/01 18:03:29;;;;;;;1.92;0.68;;;;;;;;;;8299092;28;20049;-63
2023/04/01 18:07:45;;;;;;;1.33;0.80;;;;;;;;;;8302964;28;20857;-63
2023/04/01 18:11:59;;;;;;;0.80;0.60;;;;;;;;;;8302419;28;20026;-64
2023/04/01 18:16:14;;;;;;;3.97;0.73;;;;;;;;;;8302403;28;20060;-64
2023/04/01 18:20:24;;;;;;;1.80;0.50;;;;;;;;;;8299665;28;20035;-64
2023/04/01 18:24:27;;;;;;;0.88;0.65;;;;;;;;;;8303168;28;20664;-64
2023/04/01 18:28:30;;;;;;;1.45;0.57;;;;;;;;;;8300785;28;20021;-64
2023/04/01 18:32:49;;;;;;;1.95;0.60;;;;;;;;;;8290181;28;20045;-64
2023/04/01 18:37:01;;;;;;;0.50;0.50;;;;;;;;;;8301929;28;20029;-64
2023/04/01 18:41:11;;;;;;;0.50;0.50;;;;;;;;;;8306900;28;20091;-64
2023/04/01 18:45:22;;;;;;;0.50;0.50;;;;;;;;;;8310144;28;20025;-64
2023/04/01 18:49:30;;;;;;;0.50;0.50;;;;;;;;;;8295658;28;20509;-64
2023/04/01 18:53:36;;;;;;;2.20;0.65;;;;;;;;;;8298456;28;21248;-64
2023/04/01 18:57:38;;;;;;;1.17;0.52;;;;;;;;;;8286706;28;20029;-64
2023/04/01 19:01:40;;;;;;;0.50;0.50;;;;;;;;;;8285287;28;20750;-63
2023/04/01 19:05:42;;;;;;;0.88;0.60;;;;;;;;;;8304270;28;20037;-64
2023/04/01 19:09:44;;;;;;;1.85;0.70;;;;;;;;;;8304455;28;20017;-64
2023/04/01 19:14:04;;;;;;;1.05;0.75;;;;;;;;;;8304636;28;20029;-64
2023/04/01 19:18:16;;;;;;;0.50;0.50;;;;;;;;;;8303647;28;20071;-63
2023/04/01 19:22:36;;;;;;;0.50;0.50;;;;;;;;;;8302567;28;20087;-64
2023/04/01 19:26:39;;;;;;;0.73;0.60;;;;;;;;;;8303406;28;20033;-63
2023/04/01 19:30:52;;;;;;;0.50;0.50;;;;;;;;;;8302882;28;20073;-64
2023/04/01 19:34:59;;;;;;;0.80;0.70;;;;;;;;;;8303284;28;20049;-64
2023/04/01 19:38:59;;;;;;;2.45;0.63;;;;;;;;;;8303140;28;20685;-64
2023/04/01 19:43:02;;;;;;;0.82;0.65;;;;;;;;;;8302588;28;20595;-64
2023/04/01 19:47:23;;;;;;;0.60;0.60;;;;;;;;;;8302116;28;20079;-64
2023/04/01 19:51:33;;;;;;;1.50;0.80;;;;;;;;;;8272911;28;20051;-64
2023/04/01 19:55:44;;;;;;;0.68;0.60;;;;;;;;;;8303856;28;20037;-63
2023/04/01 19:59:56;;;;;;;0.93;0.60;;;;;;;;;;8301935;28;20050;-64
2023/04/01 20:04:07;;;;;;;1.17;0.60;;;;;;;;;;8302985;28;20064;-64
2023/04/01 20:08:18;;;;;;;0.65;0.52;;;;;;;;;;8302101;28;20029;-64
2023/04/01 20:12:37;;;;;;;0.70;0.70;;;;;;;;;;8299013;28;20533;-64
2023/04/01 20:16:47;;;;;;;1.10;1.00;;;;;;;;;;8300622;28;20033;-64
2023/04/01 20:20:53;;;;;;;0.80;0.70;;;;;;;;;;8299814;28;20025;-64
2023/04/01 20:24:58;;;;;;;0.60;0.60;;;;;;;;;;8304107;28;20024;-64
2023/04/01 20:28:58;;;;;;;;;;;;;;;;;;8302693;28;20029;-64
2023/04/01 20:33:13;;;;;;;0.98;0.70;;;;;;;;;;8297959;28;20483;-64
2023/04/01 20:37:32;;;;;;;0.90;0.75;;;;;;;;;;8300012;28;20544;-64
2023/04/01 20:41:35;;;;;;;1.65;0.60;;;;;;;;;;8303827;28;20373;-64
2023/04/01 20:45:54;;;;;;;0.70;0.70;;;;;;;;;;8305019;28;20501;-64
2023/04/01 20:50:00;;;;;;;0.80;0.68;;;;;;;;;;8303660;28;20348;-64
2023/04/01 20:54:19;;;;;;;0.80;0.80;;;;;;;;;;8304989;28;20513;-64
2023/04/01 20:58:38;;;;;;;0.88;0.88;;;;;;;;;;8303589;28;20594;-64
2023/04/01 21:02:47;;;;;;;0.95;0.90;;;;;;;;;;8305693;28;20452;-64
2023/04/01 21:07:20;;;;;;;1.02;0.90;;;;;;;;;;8305273;28;20063;-64
2023/04/01 21:11:40;;;;;;;0.95;0.90;;;;;;;;;;8250560;28;20036;-64
2023/04/01 21:15:50;;;;;;;1.35;0.80;;;;;;;;;;8303569;28;20724;-64
2023/04/01 21:20:15;;;;;;;1.10;1.00;;;;;;;;;;8304132;28;20025;-64
2023/04/01 21:24:15;;;;;;;;;;;;;;;;;;8301329;28;20025;-64
2023/04/01 21:28:30;;;;;;;2.50;1.10;;;;;;;;;;8303837;28;19920;-64
2023/04/01 21:32:50;;;;;;;2.40;1.15;;;;;;;;;;8302730;28;20107;-64
2023/04/01 21:37:03;;;;;;;0.90;0.90;;;;;;;;;;8304200;28;20020;-64
2023/04/01 21:41:21;;;;;;;1.63;1.35;;;;;;;;;;8303757;28;20148;-64
2023/04/01 21:45:37;;;;;;;1.52;1.40;;;;;;;;;;8302267;28;20503;-64
2023/04/01 21:49:51;;;;;;;1.85;1.10;;;;;;;;;;8298864;28;20059;-64
2023/04/01 21:54:17;;;;;;;1.92;1.27;;;;;;;;;;8301475;28;20119;-64
2023/04/01 21:58:17;;;;;;;3.58;1.20;;;;;;;;;;8298638;28;20494;-64
2023/04/01 22:02:46;;;;;;;1.13;1.10;;;;;;;;;;8303259;28;20041;-64
2023/04/01 22:06:53;;;;;;;1.58;1.35;;;;;;;;;;8303774;28;20025;-64
2023/04/01 22:11:06;;;;;;;2.63;1.20;;;;;;;;;;8301974;28;20139;-64
2023/04/01 22:15:29;;;;;;;3.20;1.10;;;;;;;;;;8301845;28;20603;-64
2023/04/01 22:19:50;;;;;;;1.85;1.05;;;;;;;;;;8283930;28;20052;-64
2023/04/01 22:23:56;;;;;;;0.90;0.90;;;;;;;;;;8302835;28;20029;-64
2023/04/01 22:28:12;;;;;;;0.70;0.70;;;;;;;;;;8303653;28;20025;-64
2023/04/01 22:32:19;;;;;;;0.73;0.70;;;;;;;;;;8302224;28;20041;-64
2023/04/01 22:36:28;;;;;;;0.85;0.80;;;;;;;;;;8302760;28;20105;-64
2023/04/01 22:40:35;;;;;;;1.08;0.90;;;;;;;;;;8299913;28;20029;-64
2023/04/01 22:44:52;;;;;;;1.30;0.73;;;;;;;;;;8301082;28;20061;-64
2023/04/01 22:48:57;;;;;;;1.05;0.60;;;;;;;;;;8300194;28;20042;-64
2023/04/01 22:53:07;;;;;;;0.52;0.52;;;;;;;;;;8302554;28;20025;-64
2023/04/01 22:57:13;;;;;;;0.43;0.43;;;;;;;;;;8302121;28;20686;-64
2023/04/01 23:01:16;;;;;;;0.60;0.60;;;;;;;;;;8300438;28;20048;-64
2023/04/01 23:05:19;;;;;;;1.17;0.70;;;;;;;;;;8299404;28;20404;-64
2023/04/01 23:09:30;;;;;;;0.70;0.70;;;;;;;;;;8300493;28;20431;-64
2023/04/01 23:13:53;;;;;;;1.20;1.10;;;;;;;;;;8296804;28;20522;-64
2023/04/01 23:18:02;;;;;;;1.20;1.10;;;;;;;;;;8271783;28;20059;-64
2023/04/01 23:22:26;;;;;;;1.50;1.40;;;;;;;;;;8300892;28;20043;-64
2023/04/01 23:26:37;;;;;;;4.47;1.30;;;;;;;;;;8279825;28;20573;-64
2023/04/01 23:30:37;;;;;;;1.85;1.30;;;;;;;;;;8298953;28;20041;-64
2023/04/01 23:34:37;;;;;;;1.20;1.10;;;;;;;;;;8300247;28;20029;-64
2023/04/01 23:38:41;;;;;;;1.05;1.05;;;;;;;;;;8298566;28;20284;-64
2023/04/01 23:42:41;;;;;;;2.13;1.83;;;;;;;;;;8300714;28;20076;-64
2023/04/01 23:46:42;;;;;;;3.45;1.50;;;;;;;;;;8302671;28;20044;-64
2023/04/01 23:50:44;;;;;;;2.55;1.60;;;;;;;;;;8306800;28;20284;-64
2023/04/01 23:54:48;;;;;;;1.70;1.38;;;;;;;;;;8306640;28;20029;-64
2023/04/01 23:58:52;;;;;;;2.17;1.63;;;;;;;;;;8305381;28;20021;-64
